Report METAR

 

LIRU - Rome/Urbe (it-Af, Italy
Distance from station: ESE 33km
Dati ricevuti: 18/08/2022 18:50
Molto nuvoloso
Molto nuvoloso
 Vento da SSO
Vento: SSO 11 km/h
Temperatura: 32°C
Indice di Calore: 34°C
P.to Rugiada: 19°C
Umidità: 46%
Barometro: 1007 hPa
Nuvole: Molto nuvoloso
Visibility: 7 km
Cloud details: Molto nuvoloso 914 m
2022/08/18 16:50 LIRU 181650Z 21006KT 7000 BKN030 32/19 Q1007
LIRF - Rome/Fiumicino, Italy
Distance from station: S 36km
Dati ricevuti: 18/08/2022 18:50
Parz. nuvoloso
Parz. nuvoloso
 Vento da SSE
Vento: SSE 17 km/h
Temperatura: 30°C
Indice di Calore: 33°C
P.to Rugiada: 22°C
Umidità: 62%
Barometro: 1007 hPa
Nuvole: Parz. nuvoloso
Visibility: 9 km
2022/08/18 16:50 LIRF 181650Z 16009KT 130V190 9000 NSC 30/22 Q1007 NOSIG
 
LIRV - Viterbo (it-Mil), Italy
Distance from station: NNO 36km
Dati ricevuti: 18/08/2022 18:55
Parz. nuvoloso
Parz. nuvoloso
 Vento da SSE
Vento: SSE 17 km/h
Temperatura: 28°C
Indice di Calore: 32°C
P.to Rugiada: 24°C
Umidità: 79%
Barometro: 1010 hPa
Nuvole: Parz. nuvoloso
Visibility: 10 km
Cloud details: Parz. nuvoloso 914 m
2022/08/18 16:55 LIRV 181655Z 16009KT 9999 SCT030 28/24 Q1010
LIRG - Guidonia (it-Afb, Italy
Distance from station: ESE 47km
Dati ricevuti: 18/08/2022 18:55
Parz. nuvoloso
Parz. nuvoloso
 Vento da S
Vento: S 7 km/h
Temperatura: 32°C
P.to Rugiada: 16°C
Umidità: 38%
Barometro: 1008 hPa
Nuvole: Parz. nuvoloso
Visibility: 10 km
Cloud details: Parz. nuvoloso 1219 m
2022/08/18 16:55 LIRG 181655Z 19004KT 9999 SCT040 32/16 Q1008
 
LIRA - Ciampino(It-Afb/, Italy
Distance from station: SE 48km
Dati ricevuti: 18/08/2022 18:50
Molto nuvoloso
Molto nuvoloso
 Vento da SSO
Vento: SSO 22 km/h
Temperatura: 31°C
Indice di Calore: 32°C
P.to Rugiada: 18°C
Umidità: 46%
Barometro: 1008 hPa
Nuvole: Molto nuvoloso
Visibility: 10 km
Cloud details: Molto nuvoloso 1219 m
2022/08/18 16:50 LIRA 181650Z 21012KT 170V250 9999 BKN040 31/18 Q1008